Time;durP1;ratioP1;P1;durP2;ratioP2;P2;SDS_P1;SDS_P2;PMS_P1;PMS_P2;Temp;Humidity;BMP_temperature;BMP_pressure;BME280_temperature;BME280_humidity;BME280_pressure;Samples;Min_cycle;Max_cycle;Signal;HPM_P1;HPM_P2
2023/02/03 00:00:17;;;;;;;;;;;;;;;7.20;70.72;101117.69;1086124;54;20236;-82
2023/02/03 00:01:21;;;;;;;;;;;;;;;7.22;70.34;101124.63;1087433;39;20432;-82
2023/02/03 00:02:22;;;;;;;;;;;;;;;7.24;70.62;101128.06;1086040;54;19954;-79
2023/02/03 00:03:29;;;;;;;;;;;;;;;7.17;70.63;101129.41;1086331;54;20439;-81
2023/02/03 00:04:30;;;;;;;;;;;;;;;7.11;70.90;101127.09;1086177;54;19947;-83
2023/02/03 00:05:35;;;;;;;;;;;;;;;7.18;70.86;101123.97;1086113;54;19973;-83
2023/02/03 00:06:36;;;;;;;;;;;;;;;7.12;70.71;101126.16;1086320;54;19970;-83
2023/02/03 00:07:43;;;;;;;;;;;;;;;7.11;70.80;101122.66;1086282;54;19958;-82
2023/02/03 00:08:47;;;;;;;;;;;;;;;7.11;71.27;101113.81;1086201;54;19946;-82
2023/02/03 00:09:49;;;;;;;;;;;;;;;7.07;71.19;101129.09;1086213;54;20457;-82
2023/02/03 00:10:53;;;;;;;;;;;;;;;7.15;71.08;101120.66;1086193;54;20070;-80
2023/02/03 00:11:54;;;;;;;;;;;;;;;7.27;70.86;101121.69;1085633;54;19970;-82
2023/02/03 00:12:57;;;;;;;;;;;;;;;7.20;70.93;101115.03;1085927;54;19958;-82
2023/02/03 00:14:01;;;;;;;;;;;;;;;7.16;71.12;101106.41;1085701;54;20045;-79
2023/02/03 00:15:03;;;;;;;;;;;;;;;7.13;71.25;101111.91;1086180;54;19952;-79
2023/02/03 00:16:08;;;;;;;;;;;;;;;7.18;71.31;101112.47;1086174;54;19950;-79
2023/02/03 00:17:09;;;;;;;;;;;;;;;7.15;71.49;101110.84;1086241;54;19963;-81
2023/02/03 00:18:13;;;;;;;;;;;;;;;7.08;71.53;101111.34;1086413;39;20397;-80
2023/02/03 00:19:17;;;;;;;;;;;;;;;7.20;71.07;101117.69;1085759;54;19957;-80
2023/02/03 00:20:21;;;;;;;;;;;;;;;7.14;71.34;101108.31;1086152;54;19947;-80
2023/02/03 00:21:22;;;;;;;;;;;;;;;7.10;71.44;101112.09;1086299;54;19951;-81
2023/02/03 00:22:26;;;;;;;;;;;;;;;7.16;71.54;101109.06;1086046;54;19947;-81
2023/02/03 00:23:30;;;;;;;;;;;;;;;7.17;71.08;101116.09;1086044;54;19974;-82
2023/02/03 00:24:34;;;;;;;;;;;;;;;7.20;71.36;101115.88;1086369;54;19946;-82
2023/02/03 00:25:36;;;;;;;;;;;;;;;7.18;71.39;101113.34;1085893;54;19950;-81
2023/02/03 00:26:42;;;;;;;;;;;;;;;7.17;71.54;101122.25;1085838;54;19957;-81
2023/02/03 00:27:43;;;;;;;;;;;;;;;7.16;71.21;101123.22;1088372;39;20365;-80
2023/02/03 00:28:47;;;;;;;;;;;;;;;7.16;71.41;101117.03;1085912;54;19957;-81
2023/02/03 00:29:48;;;;;;;;;;;;;;;7.22;71.24;101131.75;1086060;54;19958;-81
2023/02/03 00:30:52;;;;;;;;;;;;;;;7.33;71.14;101118.63;1086672;46;19997;-81
2023/02/03 00:31:54;;;;;;;;;;;;;;;7.28;71.11;101132.22;1086270;54;19981;-83
2023/02/03 00:32:57;;;;;;;;;;;;;;;7.23;71.28;101136.97;1086141;54;19954;-80
2023/02/03 00:33:58;;;;;;;;;;;;;;;7.31;71.07;101124.03;1085974;54;19954;-80
2023/02/03 00:35:05;;;;;;;;;;;;;;;7.20;71.14;101133.66;1086552;54;19942;-81
2023/02/03 00:36:06;;;;;;;;;;;;;;;7.16;71.55;101125.88;1086543;54;19953;-81
2023/02/03 00:37:10;;;;;;;;;;;;;;;7.15;71.40;101125.97;1086165;54;19953;-81
2023/02/03 00:38:11;;;;;;;;;;;;;;;7.12;71.71;101116.38;1086073;54;19970;-80
2023/02/03 00:39:15;;;;;;;;;;;;;;;7.08;72.03;101114.00;1086237;54;19947;-83
2023/02/03 00:40:17;;;;;;;;;;;;;;;7.15;71.58;101115.34;1089135;39;20082;-81
2023/02/03 00:41:21;;;;;;;;;;;;;;;7.19;71.49;101114.16;1085891;54;19987;-80
2023/02/03 00:42:22;;;;;;;;;;;;;;;7.18;71.78;101115.13;1085121;54;19946;-80
2023/02/03 00:43:26;;;;;;;;;;;;;;;7.20;71.47;101115.88;1085920;54;19947;-79
2023/02/03 00:44:27;;;;;;;;;;;;;;;7.15;71.64;101108.19;1086209;54;20579;-81
2023/02/03 00:45:31;;;;;;;;;;;;;;;7.17;71.78;101113.44;1086064;54;19956;-81
2023/02/03 00:46:34;;;;;;;;;;;;;;;7.15;71.65;101115.34;1086032;54;19969;-80
2023/02/03 00:47:38;;;;;;;;;;;;;;;7.11;71.81;101119.13;1086004;54;19977;-80
2023/02/03 00:48:39;;;;;;;;;;;;;;;7.20;71.50;101120.38;1085813;54;19977;-84
2023/02/03 00:49:43;;;;;;;;;;;;;;;7.23;71.42;101134.31;1086115;54;19947;-83
2023/02/03 00:50:47;;;;;;;;;;;;;;;7.23;71.68;101129.00;1086425;54;20512;-82
2023/02/03 00:51:51;;;;;;;;;;;;;;;7.24;71.42;101129.84;1086605;54;19946;-79
2023/02/03 00:52:52;;;;;;;;;;;;;;;7.15;71.85;101120.66;1086537;54;19942;-81
2023/02/03 00:53:56;;;;;;;;;;;;;;;7.15;71.94;101128.63;1088256;39;20395;-78
2023/02/03 00:54:57;;;;;;;;;;;;;;;7.17;71.73;101118.75;1085791;54;19946;-80
2023/02/03 00:56:01;;;;;;;;;;;;;;;7.18;71.80;101120.44;1085636;54;19962;-79
2023/02/03 00:57:05;;;;;;;;;;;;;;;7.17;72.10;101108.13;1085833;54;20405;-80
2023/02/03 00:58:06;;;;;;;;;;;;;;;7.11;72.33;101116.47;1085821;54;19947;-82
2023/02/03 00:59:10;;;;;;;;;;;;;;;7.11;72.37;101114.69;1086104;54;19946;-83
2023/02/03 01:00:11;;;;;;;;;;;;;;;7.10;72.30;101104.13;1085783;54;19953;-82
2023/02/03 01:01:15;;;;;;;;;;;;;;;7.07;72.55;101097.19;1085474;39;20361;-80
2023/02/03 01:02:16;;;;;;;;;;;;;;;7.01;72.78;101086.94;1085706;54;19951;-80
2023/02/03 01:03:20;;;;;;;;;;;;;;;7.06;72.55;101084.84;1086110;54;19947;-81
2023/02/03 01:04:21;;;;;;;;;;;;;;;7.15;72.31;101088.75;1085569;54;19946;-81
2023/02/03 01:05:25;;;;;;;;;;;;;;;7.09;72.59;101089.09;1085558;54;20031;-80
2023/02/03 01:06:29;;;;;;;;;;;;;;;7.05;72.61;101092.94;1085772;54;20504;-81
2023/02/03 01:07:33;;;;;;;;;;;;;;;7.05;72.60;101098.25;1085845;54;19974;-81
2023/02/03 01:08:34;;;;;;;;;;;;;;;7.11;72.43;101105.81;1086158;54;20034;-81
2023/02/03 01:09:39;;;;;;;;;;;;;;;7.09;72.73;101105.06;1086596;39;20744;-80
2023/02/03 01:10:40;;;;;;;;;;;;;;;7.13;72.68;101103.94;1085918;54;19946;-80
2023/02/03 01:11:43;;;;;;;;;;;;;;;7.24;72.17;101109.44;1085564;54;19997;-81
2023/02/03 01:12:45;;;;;;;;;;;;;;;7.23;72.19;101107.72;1085568;54;19950;-79
2023/02/03 01:13:49;;;;;;;;;;;;;;;7.14;72.61;101100.31;1085624;54;19965;-78
2023/02/03 01:14:50;;;;;;;;;;;;;;;7.14;72.37;101109.16;1085477;54;19973;-81
2023/02/03 01:15:54;;;;;;;;;;;;;;;7.20;72.36;101107.91;1085412;54;19947;-79
2023/02/03 01:16:55;;;;;;;;;;;;;;;7.21;72.41;101106.97;1085304;54;19990;-79
2023/02/03 01:17:58;;;;;;;;;;;;;;;7.20;72.35;101104.41;1085818;39;20364;-78
2023/02/03 01:18:59;;;;;;;;;;;;;;;7.24;72.35;101096.13;1085879;54;20450;-79
2023/02/03 01:20:03;;;;;;;;;;;;;;;7.12;72.42;101100.44;1085884;54;19951;-80
2023/02/03 01:21:05;;;;;;;;;;;;;;;7.07;72.65;101097.19;1085865;54;19938;-78
2023/02/03 01:22:11;;;;;;;;;;;;;;;7.16;72.59;101095.78;1086310;54;19947;-78
2023/02/03 01:23:13;;;;;;;;;;;;;;;7.08;72.45;101087.44;1085998;54;19954;-81
2023/02/03 01:24:16;;;;;;;;;;;;;;;7.12;72.65;101083.59;1085942;54;19946;-82
2023/02/03 01:25:17;;;;;;;;;;;;;;;7.08;72.76;101088.25;1085836;54;19958;-80
2023/02/03 01:26:23;;;;;;;;;;;;;;;7.06;72.64;101081.34;1086462;54;19958;-82
2023/02/03 01:27:24;;;;;;;;;;;;;;;7.10;72.65;101097.00;1085998;54;19951;-78
2023/02/03 01:28:28;;;;;;;;;;;;;;;7.11;72.79;101097.84;1085932;54;19997;-82
2023/02/03 01:29:29;;;;;;;;;;;;;;;7.04;72.75;101086.72;1085714;54;19939;-79
2023/02/03 01:30:32;;;;;;;;;;;;;;;7.10;73.00;101098.78;1086339;54;20568;-78
2023/02/03 01:31:35;;;;;;;;;;;;;;;7.14;72.49;101103.81;1085638;54;20049;-79
2023/02/03 01:32:39;;;;;;;;;;;;;;;7.09;72.80;101097.09;1086028;46;19954;-81
2023/02/03 01:33:40;;;;;;;;;;;;;;;7.23;72.41;101105.06;1085782;54;19946;-79
2023/02/03 01:34:44;;;;;;;;;;;;;;;7.16;72.38;101107.25;1085860;46;19950;-77
2023/02/03 01:35:45;;;;;;;;;;;;;;;7.13;72.43;101101.28;1085821;54;19950;-79
2023/02/03 01:36:49;;;;;;;;;;;;;;;7.13;72.61;101093.28;1085944;54;20417;-77
2023/02/03 01:37:52;;;;;;;;;;;;;;;7.19;72.74;101098.22;1085803;54;20039;-81
2023/02/03 01:38:56;;;;;;;;;;;;;;;7.18;72.78;101104.47;1085833;46;20006;-78
2023/02/03 01:39:57;;;;;;;;;;;;;;;7.28;72.38;101102.09;1085724;54;19946;-79
2023/02/03 01:41:01;;;;;;;;;;;;;;;7.17;72.53;101114.28;1086181;54;19951;-82
2023/02/03 01:42:02;;;;;;;;;;;;;;;7.23;72.21;101102.41;1086260;54;19974;-82
2023/02/03 01:43:06;;;;;;;;;;;;;;;7.25;72.46;101102.28;1085849;54;19996;-78
2023/02/03 01:44:22;;;;;;;;;;;;;;;7.12;72.84;101097.78;1086972;46;19951;-79
2023/02/03 01:45:26;;;;;;;;;;;;;;;7.22;72.39;101100.69;1086768;54;19947;-79
2023/02/03 01:46:29;;;;;;;;;;;;;;;7.20;72.53;101093.75;1085984;54;20463;-81
2023/02/03 01:47:35;;;;;;;;;;;;;;;7.16;72.67;101098.44;1086347;54;20038;-79
2023/02/03 01:48:36;;;;;;;;;;;;;;;7.11;72.69;101097.84;1086140;54;19946;-79
2023/02/03 01:49:41;;;;;;;;;;;;;;;7.12;72.98;101102.22;1086450;54;19950;-79
2023/02/03 01:50:42;;;;;;;;;;;;;;;7.09;72.94;101099.75;1085982;54;19954;-82
2023/02/03 01:51:47;;;;;;;;;;;;;;;7.14;73.07;101095.00;1085959;54;19946;-81
2023/02/03 01:52:49;;;;;;;;;;;;;;;7.08;73.12;101093.59;1086493;54;19978;-79
2023/02/03 01:53:57;;;;;;;;;;;;;;;7.06;73.30;101091.97;1087270;54;20345;-79
2023/02/03 01:54:59;;;;;;;;;;;;;;;7.08;73.25;101087.44;1086391;54;19950;-83
2023/02/03 01:56:05;;;;;;;;;;;;;;;7.05;73.56;101083.13;1086620;54;19957;-82
2023/02/03 01:57:10;;;;;;;;;;;;;;;7.21;72.94;101085.69;1086226;54;20006;-81
2023/02/03 01:58:19;;;;;;;;;;;;;;;7.12;73.08;101079.16;1086490;46;19946;-82
2023/02/03 01:59:21;;;;;;;;;;;;;;;7.16;73.31;101069.19;1087444;39;20522;-82
2023/02/03 02:00:25;;;;;;;;;;;;;;;7.06;73.50;101068.06;1086531;54;19958;-80
2023/02/03 02:01:28;;;;;;;;;;;;;;;7.05;73.48;101063.69;1086536;54;19946;-80
2023/02/03 02:02:32;;;;;;;;;;;;;;;7.03;73.54;101059.31;1086311;54;19947;-80
2023/02/03 02:03:35;;;;;;;;;;;;;;;7.05;73.56;101050.38;1086647;54;19950;-81
2023/02/03 02:04:41;;;;;;;;;;;;;;;7.05;73.66;101039.75;1086505;54;20051;-81
2023/02/03 02:05:48;;;;;;;;;;;;;;;7.00;73.93;101048.00;1086431;47;19946;-81
2023/02/03 02:06:50;;;;;;;;;;;;;;;7.09;73.51;101049.22;1086506;54;19950;-81
2023/02/03 02:07:55;;;;;;;;;;;;;;;7.07;73.75;101041.34;1086238;54;19973;-81
2023/02/03 02:09:00;;;;;;;;;;;;;;;7.06;73.70;101044.97;1086400;54;19951;-83
2023/02/03 02:10:03;;;;;;;;;;;;;;;7.13;73.25;101042.78;1086380;47;19993;-81
2023/02/03 02:11:06;;;;;;;;;;;;;;;7.16;73.25;101042.59;1086574;46;19947;-79
2023/02/03 02:12:11;;;;;;;;;;;;;;;7.06;73.75;101046.78;1085929;54;19968;-80
2023/02/03 02:13:12;;;;;;;;;;;;;;;7.05;73.61;101061.84;1086055;54;20014;-81
2023/02/03 02:14:16;;;;;;;;;;;;;;;7.02;73.59;101049.63;1086220;47;19972;-82
2023/02/03 02:15:18;;;;;;;;;;;;;;;7.00;73.55;101048.84;1086372;54;19946;-80
2023/02/03 02:16:26;;;;;;;;;;;;;;;7.03;73.80;101048.69;1086053;54;20034;-79
2023/02/03 02:17:36;;;;;;;;;;;;;;;7.08;73.82;101035.09;1086207;54;20445;-81
2023/02/03 02:18:46;;;;;;;;;;;;;;;7.03;73.67;101018.59;1086357;54;19969;-80
2023/02/03 02:20:04;;;;;;;;;;;;;;;6.98;73.65;101000.28;1085991;54;19977;-80
2023/02/03 02:21:23;;;;;;;;;;;;;;;6.97;73.97;100990.59;1086457;31;20549;-80
2023/02/03 02:22:28;;;;;;;;;;;;;;;6.92;74.13;100982.03;1085353;54;19947;-80
2023/02/03 02:23:53;;;;;;;;;;;;;;;7.02;74.31;100975.19;1085349;54;19991;-80
2023/02/03 02:25:09;;;;;;;;;;;;;;;6.92;74.31;100979.38;1085365;54;19957;-79
2023/02/03 02:26:30;;;;;;;;;;;;;;;6.91;74.64;100982.13;1085466;54;19950;-79
2023/02/03 02:27:46;;;;;;;;;;;;;;;6.91;74.66;101000.75;1084679;54;19946;-79
2023/02/03 02:28:55;;;;;;;;;;;;;;;6.88;74.78;101007.13;1085222;54;19951;-79
2023/02/03 02:30:23;;;;;;;;;;;;;;;6.93;74.49;101020.97;1085376;39;20229;-80
2023/02/03 02:31:45;;;;;;;;;;;;;;;6.95;74.62;101013.75;1084586;54;20035;-79
2023/02/03 02:32:53;;;;;;;;;;;;;;;6.87;74.71;101016.03;1084719;54;20910;-80
2023/02/03 02:34:00;;;;;;;;;;;;;;;6.90;74.79;101026.47;1085014;54;19947;-79
2023/02/03 02:35:05;;;;;;;;;;;;;;;6.88;74.83;101031.03;1084589;54;19946;-79
2023/02/03 02:36:12;;;;;;;;;;;;;;;6.92;74.49;101035.19;1085541;47;19947;-79
2023/02/03 02:37:18;;;;;;;;;;;;;;;6.92;74.54;101045.00;1086588;54;20471;-81
2023/02/03 02:38:27;;;;;;;;;;;;;;;6.98;74.54;101033.97;1086995;39;20388;-80
2023/02/03 02:39:31;;;;;;;;;;;;;;;6.97;74.38;101033.13;1086409;54;20015;-81
2023/02/03 02:40:37;;;;;;;;;;;;;;;6.92;74.73;101029.03;1086269;54;19950;-82
2023/02/03 02:41:40;;;;;;;;;;;;;;;6.91;74.49;101022.00;1086310;54;20210;-81
2023/02/03 02:42:48;;;;;;;;;;;;;;;6.89;74.47;101021.25;1086144;54;19950;-81
2023/02/03 02:43:55;;;;;;;;;;;;;;;6.85;74.93;101017.94;1085728;54;19973;-81
2023/02/03 02:45:00;;;;;;;;;;;;;;;6.89;74.83;101010.63;1086460;54;20006;-81
2023/02/03 02:46:07;;;;;;;;;;;;;;;6.87;74.67;101014.22;1086520;54;19958;-84
2023/02/03 02:47:16;;;;;;;;;;;;;;;6.86;74.92;101009.00;1087388;39;20349;-82
2023/02/03 02:48:21;;;;;;;;;;;;;;;6.91;75.05;101012.22;1087018;31;20428;-79
2023/02/03 02:49:29;;;;;;;;;;;;;;;6.92;74.48;101007.78;1085774;46;19950;-79
2023/02/03 02:50:32;;;;;;;;;;;;;;;6.94;74.72;101014.69;1085231;54;19951;-80
2023/02/03 02:51:37;;;;;;;;;;;;;;;7.03;74.38;101021.25;1085006;54;19946;-79
2023/02/03 02:52:40;;;;;;;;;;;;;;;6.92;74.42;101011.28;1085079;54;19962;-79
2023/02/03 02:53:47;;;;;;;;;;;;;;;6.91;74.85;101006.91;1085925;39;20455;-78
2023/02/03 02:54:52;;;;;;;;;;;;;;;6.90;74.71;100999.03;1085131;54;19966;-79
2023/02/03 02:55:56;;;;;;;;;;;;;;;6.88;74.92;101001.81;1085131;54;19952;-79
2023/02/03 02:56:59;;;;;;;;;;;;;;;6.86;74.92;101006.34;1085332;39;20210;-80
2023/02/03 02:58:06;;;;;;;;;;;;;;;6.86;74.89;101011.66;1085772;54;19947;-77
2023/02/03 02:59:07;;;;;;;;;;;;;;;6.90;74.62;101005.19;1087285;54;19973;-77
2023/02/03 03:00:11;;;;;;;;;;;;;;;6.87;74.52;100994.78;1087003;54;19950;-79
2023/02/03 03:01:14;;;;;;;;;;;;;;;6.92;74.70;101003.31;1087219;54;19957;-77
2023/02/03 03:02:20;;;;;;;;;;;;;;;6.89;75.08;101014.16;1087097;54;19989;-78
2023/02/03 03:03:23;;;;;;;;;;;;;;;6.93;74.79;101005.00;1087079;54;19943;-78
2023/02/03 03:04:27;;;;;;;;;;;;;;;6.91;75.05;100990.97;1084858;54;19947;-77
2023/02/03 03:05:28;;;;;;;;;;;;;;;6.91;74.89;100992.78;1084262;39;20325;-79
2023/02/03 03:06:34;;;;;;;;;;;;;;;6.96;74.62;100995.97;1084145;54;19974;-77
2023/02/03 03:07:39;;;;;;;;;;;;;;;6.92;74.60;100997.16;1084266;54;19950;-78
2023/02/03 03:08:47;;;;;;;;;;;;;;;6.85;75.30;101002.00;1084359;54;20002;-78
2023/02/03 03:09:51;;;;;;;;;;;;;;;6.85;75.19;101005.47;1084279;54;20349;-79
2023/02/03 03:10:55;;;;;;;;;;;;;;;6.89;75.17;101006.19;1083804;54;19950;-79
2023/02/03 03:11:58;;;;;;;;;;;;;;;6.89;74.76;101007.97;1083839;54;19947;-79
2023/02/03 03:13:03;;;;;;;;;;;;;;;6.98;74.88;101016.22;1083728;54;19962;-78
2023/02/03 03:14:05;;;;;;;;;;;;;;;6.95;74.76;101013.75;1083620;54;20038;-78
2023/02/03 03:15:12;;;;;;;;;;;;;;;7.02;74.72;101014.22;1084042;54;19947;-77
2023/02/03 03:16:14;;;;;;;;;;;;;;;6.97;74.32;101022.47;1084362;54;19946;-78
2023/02/03 03:17:25;;;;;;;;;;;;;;;6.96;74.33;101019.91;1084479;54;19968;-78
2023/02/03 03:18:29;;;;;;;;;;;;;;;6.96;74.36;101023.44;1084685;54;19950;-79
2023/02/03 03:19:34;;;;;;;;;;;;;;;7.05;74.46;101023.78;1084652;54;19962;-78
2023/02/03 03:20:38;;;;;;;;;;;;;;;6.98;74.49;101024.19;1085666;54;19950;-79
2023/02/03 03:21:44;;;;;;;;;;;;;;;7.08;74.13;101029.75;1086059;31;20483;-79
2023/02/03 03:22:48;;;;;;;;;;;;;;;7.00;74.44;101032.06;1084408;54;19946;-79
2023/02/03 03:23:55;;;;;;;;;;;;;;;7.01;74.67;101026.63;1085971;31;20441;-80
2023/02/03 03:24:59;;;;;;;;;;;;;;;7.01;74.29;101025.81;1084515;54;20000;-80
2023/02/03 03:26:06;;;;;;;;;;;;;;;6.95;74.76;101021.72;1084432;47;19950;-79
2023/02/03 03:27:09;;;;;;;;;;;;;;;6.94;74.76;101035.97;1085671;54;19950;-79
2023/02/03 03:28:17;;;;;;;;;;;;;;;7.00;74.81;101040.88;1087530;54;19950;-78
2023/02/03 03:29:21;;;;;;;;;;;;;;;6.92;75.14;101043.19;1088427;46;19943;-79
2023/02/03 03:30:28;;;;;;;;;;;;;;;6.97;74.86;101033.13;1089332;46;19961;-77
2023/02/03 03:31:29;;;;;;;;;;;;;;;6.99;75.02;101055.13;1088311;46;20024;-78
2023/02/03 03:32:36;;;;;;;;;;;;;;;7.02;74.87;101052.28;1088062;47;19993;-77
2023/02/03 03:33:37;;;;;;;;;;;;;;;7.12;74.68;101057.00;1088379;47;19946;-79
2023/02/03 03:34:41;;;;;;;;;;;;;;;7.03;74.73;101054.00;1084791;54;19953;-79
2023/02/03 03:35:46;;;;;;;;;;;;;;;7.06;74.85;101060.06;1085564;31;20447;-78
2023/02/03 03:36:55;;;;;;;;;;;;;;;7.18;74.50;101059.28;1084322;54;19946;-79
2023/02/03 03:37:59;;;;;;;;;;;;;;;7.21;74.38;101061.75;1084216;54;19946;-79
2023/02/03 03:39:06;;;;;;;;;;;;;;;7.22;74.41;101066.13;1084168;54;20065;-78
2023/02/03 03:40:08;;;;;;;;;;;;;;;7.17;74.62;101073.53;1084399;54;19947;-79
2023/02/03 03:41:16;;;;;;;;;;;;;;;7.19;74.38;101068.97;1085436;54;19962;-78
2023/02/03 03:42:19;;;;;;;;;;;;;;;7.15;75.02;101072.78;1085966;54;19947;-79
2023/02/03 03:43:27;;;;;;;;;;;;;;;7.11;75.23;101071.25;1086305;54;19950;-78
2023/02/03 03:44:29;;;;;;;;;;;;;;;7.17;74.63;101076.22;1085451;54;19947;-79
2023/02/03 03:45:37;;;;;;;;;;;;;;;7.24;74.55;101069.53;1085988;54;19943;-78
2023/02/03 03:46:41;;;;;;;;;;;;;;;7.06;74.96;101076.03;1086407;54;19957;-77
2023/02/03 03:47:51;;;;;;;;;;;;;;;7.07;75.12;101089.22;1086160;54;19950;-78
2023/02/03 03:48:54;;;;;;;;;;;;;;;7.06;75.45;101082.19;1085026;54;19943;-78
2023/02/03 03:50:00;;;;;;;;;;;;;;;7.03;75.74;101085.06;1084888;54;20452;-78
2023/02/03 03:51:03;;;;;;;;;;;;;;;7.01;75.65;101090.44;1085310;47;19947;-79
2023/02/03 03:52:10;;;;;;;;;;;;;;;6.97;75.84;101085.41;1084533;54;20505;-78
2023/02/03 03:53:12;;;;;;;;;;;;;;;7.03;75.83;101083.25;1084543;47;20511;-78
2023/02/03 03:54:18;;;;;;;;;;;;;;;7.06;75.76;101076.88;1084978;54;19946;-78
2023/02/03 03:55:19;;;;;;;;;;;;;;;6.95;75.89;101077.56;1086039;54;20480;-78
2023/02/03 03:56:26;;;;;;;;;;;;;;;6.93;76.24;101084.75;1086260;54;19947;-78
2023/02/03 03:57:31;;;;;;;;;;;;;;;6.85;77.01;101073.75;1086016;39;20336;-78
2023/02/03 03:58:38;;;;;;;;;;;;;;;6.83;77.54;101073.88;1085289;39;20374;-79
2023/02/03 03:59:41;;;;;;;;;;;;;;;6.87;77.96;101079.84;1085569;54;19954;-78
2023/02/03 04:00:46;;;;;;;;;;;;;;;6.83;77.44;101070.34;1086967;54;19950;-78
2023/02/03 04:01:47;;;;;;;;;;;;;;;6.82;77.81;101081.91;1088417;39;20422;-77
2023/02/03 04:02:57;;;;;;;;;;;;;;;6.88;77.59;101076.22;1086696;54;20018;-78
2023/02/03 04:04:01;;;;;;;;;;;;;;;6.85;77.77;101077.25;1087032;31;20446;-78
2023/02/03 04:05:06;;;;;;;;;;;;;;;6.79;77.68;101071.50;1086756;54;20002;-79
2023/02/03 04:06:07;;;;;;;;;;;;;;;6.81;78.07;101069.56;1087148;54;19955;-78
2023/02/03 04:07:12;;;;;;;;;;;;;;;6.83;77.92;101062.34;1085199;54;19958;-79
2023/02/03 04:08:13;;;;;;;;;;;;;;;6.80;78.03;101065.22;1084960;54;19947;-80
2023/02/03 04:09:16;;;;;;;;;;;;;;;6.83;78.11;101062.34;1084661;54;19953;-78
2023/02/03 04:10:24;;;;;;;;;;;;;;;6.79;77.89;101059.03;1090104;39;20361;-78
2023/02/03 04:12:44;;;;;;;;;;;;;;;6.77;78.19;101058.28;1084596;54;20074;-78
2023/02/03 04:13:45;;;;;;;;;;;;;;;6.85;78.09;101071.09;1084725;54;19946;-79
2023/02/03 04:14:48;;;;;;;;;;;;;;;6.76;77.86;101055.72;1085477;54;19954;-80
2023/02/03 04:15:50;;;;;;;;;;;;;;;6.74;77.90;101062.94;1085629;54;19946;-79
2023/02/03 04:16:53;;;;;;;;;;;;;;;6.72;78.20;101053.25;1084525;54;19946;-78
2023/02/03 04:18:00;;;;;;;;;;;;;;;6.74;78.24;101052.31;1084795;54;19939;-78
2023/02/03 04:19:01;;;;;;;;;;;;;;;6.69;78.65;101055.25;1085962;39;20372;-77
2023/02/03 04:20:05;;;;;;;;;;;;;;;6.71;78.80;101051.53;1085654;54;20538;-77
2023/02/03 04:21:06;;;;;;;;;;;;;;;6.72;78.94;101055.06;1086689;54;19947;-77
2023/02/03 04:22:10;;;;;;;;;;;;;;;6.76;78.88;101055.72;1085778;54;19973;-77
2023/02/03 04:23:11;;;;;;;;;;;;;;;6.71;78.99;101062.16;1085564;54;20507;-78
2023/02/03 04:24:14;;;;;;;;;;;;;;;6.65;78.86;101054.59;1085476;54;19970;-78
2023/02/03 04:25:16;;;;;;;;;;;;;;;6.74;78.99;101065.59;1085615;54;19969;-78
2023/02/03 04:26:19;;;;;;;;;;;;;;;6.69;78.75;101061.44;1085555;54;19953;-78
2023/02/03 04:27:21;;;;;;;;;;;;;;;6.69;78.93;101058.78;1085868;54;19950;-78
2023/02/03 04:28:24;;;;;;;;;;;;;;;6.68;78.73;101067.69;1085159;54;19954;-79
2023/02/03 04:29:25;;;;;;;;;;;;;;;6.73;79.08;101062.09;1085797;54;20452;-82
2023/02/03 04:30:29;;;;;;;;;;;;;;;6.84;78.53;101069.38;1086430;54;19951;-81
2023/02/03 04:31:30;;;;;;;;;;;;;;;6.81;78.30;101069.56;1086659;54;19985;-82
2023/02/03 04:32:35;;;;;;;;;;;;;;;6.75;78.76;101067.31;1086408;54;19946;-80
2023/02/03 04:33:39;;;;;;;;;;;;;;;6.74;79.11;101062.94;1086941;46;19947;-79
2023/02/03 04:34:43;;;;;;;;;;;;;;;6.69;79.36;101066.75;1085883;54;19988;-81
2023/02/03 04:35:44;;;;;;;;;;;;;;;6.69;80.06;101063.22;1085110;54;19974;-79
2023/02/03 04:36:48;;;;;;;;;;;;;;;6.61;79.89;101061.06;1085353;54;20371;-80
2023/02/03 04:37:50;;;;;;;;;;;;;;;6.63;80.16;101060.94;1085293;54;19946;-77
2023/02/03 04:38:53;;;;;;;;;;;;;;;6.59;80.17;101049.66;1085317;54;20010;-80
2023/02/03 04:39:55;;;;;;;;;;;;;;;6.63;80.19;101048.50;1085726;54;19946;-78
2023/02/03 04:40:59;;;;;;;;;;;;;;;6.67;80.18;101044.72;1086199;54;19943;-78
2023/02/03 04:42:01;;;;;;;;;;;;;;;6.68;80.12;101038.47;1087231;54;19970;-77
2023/02/03 04:43:07;;;;;;;;;;;;;;;6.56;80.53;101041.88;1087081;54;19950;-78
2023/02/03 04:44:08;;;;;;;;;;;;;;;6.59;80.89;101041.69;1087216;54;20351;-78
2023/02/03 04:45:13;;;;;;;;;;;;;;;6.61;80.78;101053.09;1086836;54;19979;-77
2023/02/03 04:46:15;;;;;;;;;;;;;;;6.65;80.72;101054.59;1086943;54;19930;-79
2023/02/03 04:47:19;;;;;;;;;;;;;;;6.66;80.89;101061.63;1086833;54;19947;-78
2023/02/03 04:48:20;;;;;;;;;;;;;;;6.57;81.13;101056.88;1085791;54;20508;-78
2023/02/03 04:49:27;;;;;;;;;;;;;;;6.58;81.54;101053.25;1084744;54;19962;-79
2023/02/03 04:50:28;;;;;;;;;;;;;;;6.54;81.58;101043.75;1085373;54;20480;-79
2023/02/03 04:51:32;;;;;;;;;;;;;;;6.54;81.96;101041.97;1086397;54;19946;-78
2023/02/03 04:52:33;;;;;;;;;;;;;;;6.49;81.45;101043.19;1086358;54;20266;-79
2023/02/03 04:53:37;;;;;;;;;;;;;;;6.50;81.55;101047.56;1085260;54;20017;-78
2023/02/03 04:54:38;;;;;;;;;;;;;;;6.49;81.55;101049.34;1086592;39;20490;-79
2023/02/03 04:55:41;;;;;;;;;;;;;;;6.50;80.89;101050.22;1085750;54;19950;-79
2023/02/03 04:56:43;;;;;;;;;;;;;;;6.48;81.03;101050.28;1085804;54;19993;-79
2023/02/03 04:57:47;;;;;;;;;;;;;;;6.55;81.20;101056.09;1085447;54;19942;-78
2023/02/03 04:58:48;;;;;;;;;;;;;;;6.57;81.16;101064.84;1085782;54;19949;-78
2023/02/03 04:59:51;;;;;;;;;;;;;;;6.49;81.17;101062.63;1085860;54;19950;-78
2023/02/03 05:00:54;;;;;;;;;;;;;;;6.54;81.00;101076.50;1085553;54;20422;-79
2023/02/03 05:01:57;;;;;;;;;;;;;;;6.55;80.90;101080.00;1085969;46;19980;-78
2023/02/03 05:02:59;;;;;;;;;;;;;;;6.54;80.51;101073.84;1086041;46;19943;-78
2023/02/03 05:04:02;;;;;;;;;;;;;;;6.55;80.66;101080.88;1085432;54;19946;-78
2023/02/03 05:05:06;;;;;;;;;;;;;;;6.54;80.38;101065.88;1085750;54;19958;-79
2023/02/03 05:06:10;;;;;;;;;;;;;;;6.58;80.57;101063.88;1086239;54;19946;-80
2023/02/03 05:07:11;;;;;;;;;;;;;;;6.59;80.32;101064.72;1086219;54;19950;-78
2023/02/03 05:08:15;;;;;;;;;;;;;;;6.60;80.56;101066.44;1085662;54;19946;-79
2023/02/03 05:09:16;;;;;;;;;;;;;;;6.56;80.66;101071.94;1085795;54;19958;-79
2023/02/03 05:10:20;;;;;;;;;;;;;;;6.54;81.00;101078.28;1086863;39;20376;-78
2023/02/03 05:11:21;;;;;;;;;;;;;;;6.58;80.92;101073.66;1085506;54;19981;-79
2023/02/03 05:12:26;;;;;;;;;;;;;;;6.55;80.66;101069.38;1087359;46;19942;-77
2023/02/03 05:13:27;;;;;;;;;;;;;;;6.53;80.49;101074.81;1087309;54;19946;-77
2023/02/03 05:14:31;;;;;;;;;;;;;;;6.55;80.31;101075.56;1089446;39;20353;-78
2023/02/03 05:15:32;;;;;;;;;;;;;;;6.53;80.08;101065.94;1090823;39;20546;-78
2023/02/03 05:16:35;;;;;;;;;;;;;;;6.59;80.57;101056.75;1086751;54;19942;-78
2023/02/03 05:17:38;;;;;;;;;;;;;;;6.54;80.29;101049.06;1087095;54;19954;-77
2023/02/03 05:18:42;;;;;;;;;;;;;;;6.55;80.41;101048.13;1087596;54;20657;-79
2023/02/03 05:19:46;;;;;;;;;;;;;;;6.58;80.69;101042.63;1085345;39;20217;-79
2023/02/03 05:20:49;;;;;;;;;;;;;;;6.57;80.59;101043.56;1086056;54;19946;-81
2023/02/03 05:21:53;;;;;;;;;;;;;;;6.49;80.33;101043.19;1085894;54;19962;-83
2023/02/03 05:22:54;;;;;;;;;;;;;;;6.51;79.86;101042.16;1086884;39;20389;-80
2023/02/03 05:23:59;;;;;;;;;;;;;;;6.49;79.98;101059.13;1085831;54;19954;-81
2023/02/03 05:25:00;;;;;;;;;;;;;;;6.50;80.30;101071.47;1085579;54;19950;-79
2023/02/03 05:26:03;;;;;;;;;;;;;;;6.54;80.01;101072.97;1085871;54;19950;-80
2023/02/03 05:27:05;;;;;;;;;;;;;;;6.58;80.16;101079.84;1085547;54;20054;-78
2023/02/03 05:28:08;;;;;;;;;;;;;;;6.58;80.07;101079.84;1085152;54;19953;-79
2023/02/03 05:29:11;;;;;;;;;;;;;;;6.61;79.97;101079.66;1085003;54;19939;-78
2023/02/03 05:30:15;;;;;;;;;;;;;;;6.53;80.15;101077.47;1086663;54;19957;-81
2023/02/03 05:31:16;;;;;;;;;;;;;;;6.49;80.28;101081.22;1086647;54;19951;-77
2023/02/03 05:32:20;;;;;;;;;;;;;;;6.49;80.39;101080.38;1087317;54;19926;-79
2023/02/03 05:33:21;;;;;;;;;;;;;;;6.47;80.71;101074.31;1087585;54;19942;-79
2023/02/03 05:34:25;;;;;;;;;;;;;;;6.49;80.55;101065.28;1089561;39;20482;-77
2023/02/03 05:35:26;;;;;;;;;;;;;;;6.46;81.08;101068.16;1087636;54;19942;-77